MMML/MXL METAR and TAF weather

Enter ICAO airport designator
Station Type Date Time Source
MMML METAR 2021/07/28 20:48 UTC NOAA

MMML 282048Z 16003KT 10SM SKC 40/12 A2987 RMK SLP115 57020 900 CBS 1QUAD AC DSNT N


Station Type Date Time Source
MMML Decoded METAR 2021/07/28 20:48 UTC NOAA

Mexicali International Airport , Mexico (MMML) 32-38N 117-00W
Jul 28, 2021 - 04:48 PM EDT / 2021.07.28 2048 UTC
Wind: from the SSE (160 degrees) at 3 MPH (3 KT):0
Visibility: 10 mile(s):0
Sky conditions: clear
Weather: Cumulonimbus clouds observed
Temperature: 104 F (40 C)
Heat index: 101.8 F (38.8 C):1
Dew Point: 53 F (12 C)
Relative Humidity: 18%
Pressure (altimeter): 29.87 in. Hg (1011 hPa)
Pressure tendency: 0.06 inches (2.0 hPa) lower than three hours ago
ob: MMML 282048Z 16003KT 10SM SKC 40/12 A2987 RMK SLP115 57020 900 CBS 1QUAD AC DSNT N
cycle: 21

Station Type Date Time Source
MMML TAF 2021/07/28 18:22 UTC NOAA

TAF MMML 281615Z 2818/2918 16010KT P6SM BKN250
FM290600 16005KT P6SM SKC
FM291700 03010KT P6SM SCT250

Example: see airport list